createdAt,value
2019-01-27T00:02:16.793Z,5.30
2019-01-27T00:04:45.494Z,5.30
2019-01-27T00:07:14.173Z,5.30
2019-01-27T00:09:42.890Z,5.40
2019-01-27T00:12:11.538Z,5.40
2019-01-27T00:14:40.367Z,5.40
2019-01-27T00:17:09.153Z,5.40
2019-01-27T00:19:38.020Z,5.40
2019-01-27T00:22:06.717Z,5.30
2019-01-27T00:24:35.357Z,5.30
2019-01-27T00:27:04.038Z,5.30
2019-01-27T00:29:32.685Z,5.30
2019-01-27T00:32:01.389Z,5.30
2019-01-27T00:34:30.061Z,5.40
2019-01-27T00:36:58.719Z,5.40
2019-01-27T00:39:27.426Z,5.30
2019-01-27T00:41:56.153Z,5.40
2019-01-27T00:44:24.823Z,5.40
2019-01-27T00:46:53.487Z,5.40
2019-01-27T00:49:22.200Z,5.40
2019-01-27T00:51:50.898Z,5.40
2019-01-27T00:54:19.562Z,5.40
2019-01-27T00:56:48.242Z,5.50
2019-01-27T00:59:16.910Z,5.40
2019-01-27T01:01:45.586Z,5.40
2019-01-27T01:04:14.253Z,5.40
2019-01-27T01:06:43.005Z,5.40
2019-01-27T01:09:11.881Z,5.40
2019-01-27T01:11:40.729Z,5.40
2019-01-27T01:14:09.402Z,5.40
2019-01-27T01:16:38.104Z,5.50
2019-01-27T01:19:06.898Z,5.50
2019-01-27T01:21:35.608Z,5.50
2019-01-27T01:24:04.681Z,5.50
2019-01-27T01:26:33.450Z,5.50
2019-01-27T01:29:02.109Z,5.50
2019-01-27T01:31:30.768Z,5.50
2019-01-27T01:33:59.481Z,5.50
2019-01-27T01:36:28.128Z,5.50
2019-01-27T01:38:56.816Z,5.60
2019-01-27T01:41:25.463Z,5.60
2019-01-27T01:43:54.229Z,5.60
2019-01-27T01:46:22.878Z,5.60
2019-01-27T01:48:51.535Z,5.60
2019-01-27T01:51:20.213Z,5.70
2019-01-27T01:53:48.865Z,5.60
2019-01-27T01:56:17.546Z,5.70
2019-01-27T01:58:46.198Z,5.70
2019-01-27T02:01:14.870Z,5.70
2019-01-27T02:03:43.554Z,5.70
2019-01-27T02:06:12.207Z,5.70
2019-01-27T02:08:40.874Z,5.80
2019-01-27T02:11:09.569Z,5.70
2019-01-27T02:13:38.237Z,5.70
2019-01-27T02:16:07.094Z,5.70
2019-01-27T02:18:36.176Z,5.60
2019-01-27T02:21:05.625Z,5.70
2019-01-27T02:23:34.294Z,5.70
2019-01-27T02:26:02.974Z,5.60
2019-01-27T02:28:31.626Z,5.50
2019-01-27T02:31:00.397Z,5.40
2019-01-27T02:33:29.085Z,5.40
2019-01-27T02:35:57.876Z,5.30
2019-01-27T02:38:26.625Z,5.30
2019-01-27T02:40:55.310Z,5.30
2019-01-27T02:43:23.957Z,5.30
2019-01-27T02:45:52.618Z,5.30
2019-01-27T02:48:21.309Z,5.30
2019-01-27T02:50:49.978Z,5.30
2019-01-27T02:53:18.725Z,5.30
2019-01-27T02:55:47.386Z,5.30
2019-01-27T02:58:16.058Z,5.30
2019-01-27T03:00:44.710Z,5.30
2019-01-27T03:03:13.392Z,5.30
2019-01-27T03:05:46.445Z,5.20
2019-01-27T03:08:15.224Z,5.20
2019-01-27T03:10:43.889Z,5.20
2019-01-27T03:13:12.574Z,5.20
2019-01-27T03:15:41.265Z,5.20
2019-01-27T03:18:09.986Z,5.20
2019-01-27T03:20:38.805Z,5.20
2019-01-27T03:23:07.554Z,5.20
2019-01-27T03:25:36.197Z,5.20
2019-01-27T03:28:04.878Z,5.20
2019-01-27T03:30:33.554Z,5.20
2019-01-27T03:33:02.435Z,5.20
2019-01-27T03:35:31.159Z,5.20
2019-01-27T03:37:59.876Z,5.20
2019-01-27T03:40:28.631Z,5.20
2019-01-27T03:42:57.297Z,5.20
2019-01-27T03:45:25.982Z,5.20
2019-01-27T03:47:54.649Z,5.20
2019-01-27T03:50:23.316Z,5.30
2019-01-27T03:52:51.969Z,5.20
2019-01-27T03:55:22.745Z,5.20
2019-01-27T03:57:51.519Z,5.20
2019-01-27T04:00:23.974Z,5.20
2019-01-27T04:02:52.668Z,5.20
2019-01-27T04:05:21.590Z,5.20
2019-01-27T04:07:50.436Z,5.30
2019-01-27T04:10:23.766Z,5.30
2019-01-27T04:12:52.447Z,5.30
2019-01-27T04:15:21.190Z,5.20
2019-01-27T04:17:49.843Z,5.20
2019-01-27T04:20:20.406Z,5.20
2019-01-27T04:22:49.318Z,5.20
2019-01-27T04:25:18.166Z,5.20
2019-01-27T04:27:46.929Z,5.20
2019-01-27T04:30:19.778Z,5.10
2019-01-27T04:32:48.431Z,5.10
2019-01-27T04:35:17.097Z,5.10
2019-01-27T04:37:45.756Z,5.10
2019-01-27T04:40:17.146Z,5.10
2019-01-27T04:42:45.786Z,5.20
2019-01-27T04:45:17.298Z,5.20
2019-01-27T04:47:45.967Z,5.20
2019-01-27T04:50:14.935Z,5.20
2019-01-27T04:52:43.694Z,5.20
2019-01-27T04:55:14.693Z,5.20
2019-01-27T04:57:43.801Z,5.20
2019-01-27T05:00:21.281Z,5.20
2019-01-27T05:02:51.498Z,5.20
2019-01-27T05:05:20.151Z,5.20
2019-01-27T05:07:48.828Z,5.20
2019-01-27T05:10:17.483Z,5.20
2019-01-27T05:12:46.195Z,5.10
2019-01-27T05:15:21.468Z,5.10
2019-01-27T05:17:50.137Z,5.10
2019-01-27T05:20:18.794Z,5.10
2019-01-27T05:22:47.538Z,5.10
2019-01-27T05:25:17.320Z,5.10
2019-01-27T05:27:45.965Z,5.10
2019-01-27T05:30:23.443Z,5.10
2019-01-27T05:32:52.209Z,5.10
2019-01-27T05:35:20.871Z,5.00
2019-01-27T05:37:49.542Z,5.10
2019-01-27T05:40:19.189Z,5.00
2019-01-27T05:42:47.902Z,5.00
2019-01-27T05:45:19.521Z,5.10
2019-01-27T05:47:48.201Z,5.10
2019-01-27T05:50:17.689Z,5.20
2019-01-27T05:52:46.389Z,5.20
2019-01-27T05:55:16.193Z,5.20
2019-01-27T05:57:44.906Z,5.20
2019-01-27T06:00:20.910Z,5.20
2019-01-27T06:02:49.585Z,5.20
2019-01-27T06:05:18.256Z,5.30
2019-01-27T06:07:46.971Z,5.20
2019-01-27T06:10:15.841Z,5.20
2019-01-27T06:12:44.513Z,5.20
2019-01-27T06:15:15.837Z,5.20
2019-01-27T06:17:44.590Z,5.20
2019-01-27T06:20:17.324Z,5.10
2019-01-27T06:22:45.971Z,5.20
2019-01-27T06:25:16.712Z,5.10
2019-01-27T06:27:45.369Z,5.10
2019-01-27T06:30:27.582Z,5.20
2019-01-27T06:33:03.894Z,5.20
2019-01-27T06:35:32.743Z,5.20
2019-01-27T06:38:01.458Z,5.20
2019-01-27T06:40:30.113Z,5.20
2019-01-27T06:42:58.798Z,5.20
2019-01-27T06:45:27.440Z,5.20
2019-01-27T06:47:56.097Z,5.20
2019-01-27T06:50:24.781Z,5.20
2019-01-27T06:52:53.534Z,5.20
2019-01-27T06:55:23.198Z,5.20
2019-01-27T06:57:51.876Z,5.20
2019-01-27T07:00:27.258Z,5.20
2019-01-27T07:02:57.492Z,5.20
2019-01-27T07:05:30.486Z,5.20
2019-01-27T07:08:03.232Z,5.20
2019-01-27T07:10:39.243Z,5.10
2019-01-27T07:13:09.480Z,5.10
2019-01-27T07:15:42.156Z,5.00
2019-01-27T07:18:24.649Z,5.10
2019-01-27T07:21:00.462Z,5.10
2019-01-27T07:23:39.733Z,5.20
2019-01-27T07:26:28.145Z,5.10
2019-01-27T07:29:04.394Z,5.10
2019-01-27T07:31:49.984Z,5.20
2019-01-27T07:34:36.591Z,5.20
2019-01-27T07:37:23.570Z,5.30
2019-01-27T07:40:10.429Z,5.30
2019-01-27T07:42:46.485Z,5.40
2019-01-27T07:45:28.585Z,5.40
2019-01-27T07:48:04.575Z,5.50
2019-01-27T07:50:53.171Z,5.50
2019-01-27T07:53:25.933Z,5.50
2019-01-27T07:55:56.178Z,5.50
2019-01-27T07:58:26.422Z,5.60
2019-01-27T08:00:59.619Z,5.50
2019-01-27T08:03:32.619Z,5.50
2019-01-27T08:06:08.779Z,5.40
2019-01-27T08:08:55.109Z,5.40
2019-01-27T08:11:28.389Z,5.40
2019-01-27T08:14:04.279Z,5.40
2019-01-27T08:16:34.617Z,5.40
2019-01-27T08:19:17.020Z,5.40
2019-01-27T08:21:47.250Z,5.50
2019-01-27T08:24:23.017Z,5.50
2019-01-27T08:27:11.494Z,5.50
2019-01-27T08:29:47.662Z,5.40
2019-01-27T08:32:23.775Z,5.50
2019-01-27T08:34:59.677Z,5.50
2019-01-27T08:37:35.691Z,5.60
2019-01-27T08:40:08.994Z,5.60
2019-01-27T08:42:39.234Z,5.60
2019-01-27T08:45:11.572Z,5.70
2019-01-27T08:47:40.238Z,5.70
2019-01-27T08:50:12.180Z,5.80
2019-01-27T08:52:40.908Z,5.90
2019-01-27T08:55:11.698Z,5.90
2019-01-27T08:57:40.360Z,6.10
2019-01-27T09:00:18.081Z,6.20
2019-01-27T09:03:00.313Z,6.20
2019-01-27T09:05:30.586Z,6.30
2019-01-27T09:08:03.516Z,6.30
2019-01-27T09:10:33.773Z,6.30
2019-01-27T09:13:22.085Z,6.20
2019-01-27T09:16:08.654Z,6.10
2019-01-27T09:18:47.978Z,6.10
2019-01-27T09:21:23.946Z,6.20
2019-01-27T09:24:06.205Z,6.20
2019-01-27T09:26:36.454Z,6.20
2019-01-27T09:29:15.942Z,6.20
2019-01-27T09:31:52.009Z,6.30
2019-01-27T09:34:22.338Z,6.40
2019-01-27T09:36:58.195Z,6.50
2019-01-27T09:39:30.879Z,6.40
2019-01-27T09:42:17.542Z,6.40
2019-01-27T09:45:03.757Z,6.40
2019-01-27T09:47:36.601Z,6.40
2019-01-27T09:50:09.961Z,6.50
2019-01-27T09:52:40.227Z,6.40
2019-01-27T09:55:11.870Z,6.40
2019-01-27T09:57:44.923Z,6.50
2019-01-27T10:00:20.990Z,6.50
2019-01-27T10:03:02.972Z,6.60
2019-01-27T10:05:33.313Z,6.60
2019-01-27T10:08:03.662Z,6.50
2019-01-27T10:10:33.927Z,6.50
2019-01-27T10:13:04.176Z,6.60
2019-01-27T10:15:37.227Z,6.70
2019-01-27T10:18:07.676Z,6.80
2019-01-27T10:20:54.251Z,7.10
2019-01-27T10:23:26.998Z,7.30
2019-01-27T10:26:00.048Z,7.50
2019-01-27T10:28:42.392Z,7.60
2019-01-27T10:31:15.219Z,7.60
2019-01-27T10:33:50.727Z,7.50
2019-01-27T10:36:20.985Z,7.40
2019-01-27T10:39:09.564Z,7.40
2019-01-27T10:41:42.874Z,7.60
2019-01-27T10:44:13.117Z,7.50
2019-01-27T10:46:59.676Z,7.50
2019-01-27T10:49:38.952Z,7.50
2019-01-27T10:52:18.381Z,7.30
2019-01-27T10:54:48.615Z,7.30
2019-01-27T10:57:21.578Z,7.30
2019-01-27T10:59:51.821Z,7.40
2019-01-27T11:02:27.765Z,7.40
2019-01-27T11:05:00.783Z,7.40
2019-01-27T11:07:31.107Z,7.30
2019-01-27T11:10:16.442Z,7.30
2019-01-27T11:12:52.602Z,7.40
2019-01-27T11:15:22.828Z,7.40
2019-01-27T11:17:53.093Z,7.30
2019-01-27T11:20:28.953Z,7.30
2019-01-27T11:23:02.145Z,7.20
2019-01-27T11:25:35.030Z,7.20
2019-01-27T11:28:17.222Z,7.20
2019-01-27T11:30:53.298Z,7.20
2019-01-27T11:33:26.397Z,7.30
2019-01-27T11:35:59.228Z,7.30
2019-01-27T11:38:45.854Z,7.20
2019-01-27T11:41:32.194Z,7.20
2019-01-27T11:44:20.345Z,7.30
2019-01-27T11:46:56.506Z,7.30
2019-01-27T11:49:26.929Z,7.20
2019-01-27T11:51:55.574Z,7.20
2019-01-27T11:54:24.256Z,7.10
2019-01-27T11:56:52.922Z,7.10
2019-01-27T11:59:21.610Z,7.10
2019-01-27T12:01:50.484Z,7.00
2019-01-27T12:04:19.142Z,7.00
2019-01-27T12:06:47.961Z,7.00
2019-01-27T12:09:16.634Z,7.00
2019-01-27T12:11:45.334Z,7.00
2019-01-27T12:14:14.024Z,6.90
2019-01-27T12:16:42.682Z,6.90
2019-01-27T12:19:11.336Z,7.00
2019-01-27T12:21:40.047Z,7.00
2019-01-27T12:24:08.814Z,7.00
2019-01-27T12:26:37.487Z,7.00
2019-01-27T12:29:06.186Z,7.00
2019-01-27T12:31:34.838Z,7.00
2019-01-27T12:34:03.489Z,7.10
2019-01-27T12:36:32.176Z,7.20
2019-01-27T12:39:00.857Z,7.20
2019-01-27T12:41:29.540Z,7.30
2019-01-27T12:43:58.186Z,7.20
2019-01-27T12:46:27.028Z,7.20
2019-01-27T12:48:55.702Z,7.20
2019-01-27T12:51:24.604Z,7.10
2019-01-27T12:53:53.318Z,7.20
2019-01-27T12:56:22.046Z,7.20
2019-01-27T12:58:50.710Z,7.10
2019-01-27T13:01:19.381Z,7.20
2019-01-27T13:03:48.165Z,7.20
2019-01-27T13:06:16.817Z,7.10
2019-01-27T13:08:45.510Z,7.10
2019-01-27T13:11:14.186Z,7.10
2019-01-27T13:13:42.880Z,7.10
2019-01-27T13:16:11.543Z,7.00
2019-01-27T13:18:40.346Z,7.00
2019-01-27T13:21:08.994Z,6.90
2019-01-27T13:23:37.730Z,7.00
2019-01-27T13:26:06.449Z,6.80
2019-01-27T13:28:35.106Z,6.80
2019-01-27T13:31:04.196Z,6.90
2019-01-27T13:33:32.863Z,6.90
2019-01-27T13:36:01.518Z,7.00
2019-01-27T13:38:30.201Z,7.00
2019-01-27T13:40:58.858Z,7.00
2019-01-27T13:43:27.529Z,7.00
2019-01-27T13:45:56.209Z,7.00
2019-01-27T13:48:24.870Z,6.90
2019-01-27T13:50:53.651Z,6.90
2019-01-27T13:53:22.331Z,6.90
2019-01-27T13:55:51.008Z,6.80
2019-01-27T13:58:19.679Z,6.90
2019-01-27T14:00:48.354Z,6.90
2019-01-27T14:03:17.229Z,6.90
2019-01-27T14:05:46.055Z,6.80
2019-01-27T14:08:14.738Z,6.70
2019-01-27T14:10:43.394Z,6.60
2019-01-27T14:13:12.162Z,6.50
2019-01-27T14:15:41.257Z,6.40
2019-01-27T14:18:10.256Z,6.30
2019-01-27T14:20:39.027Z,6.20
2019-01-27T14:23:07.781Z,6.20
2019-01-27T14:25:36.682Z,6.20
2019-01-27T14:28:05.739Z,6.20
2019-01-27T14:30:37.466Z,6.10
2019-01-27T14:33:06.537Z,6.10
2019-01-27T14:35:35.231Z,6.10
2019-01-27T14:38:04.143Z,6.10
2019-01-27T14:40:33.013Z,6.00
2019-01-27T14:43:01.695Z,6.00
2019-01-27T14:45:34.640Z,6.00
2019-01-27T14:48:03.967Z,5.90
2019-01-27T14:50:41.823Z,6.00
2019-01-27T14:53:10.842Z,6.00
2019-01-27T14:55:39.487Z,6.00
2019-01-27T14:58:08.174Z,6.00
2019-01-27T15:00:41.989Z,6.00
2019-01-27T15:03:10.967Z,6.10
2019-01-27T15:05:39.632Z,6.00
2019-01-27T15:08:08.514Z,6.00
2019-01-27T15:10:37.583Z,6.00
2019-01-27T15:13:06.765Z,6.00
2019-01-27T15:15:35.467Z,6.00
2019-01-27T15:18:05.023Z,6.00
2019-01-27T15:20:39.121Z,5.90
2019-01-27T15:23:07.927Z,5.90
2019-01-27T15:25:36.595Z,5.90
2019-01-27T15:28:05.502Z,5.90
2019-01-27T15:30:36.375Z,5.90
2019-01-27T15:33:05.939Z,5.90
2019-01-27T15:35:34.707Z,5.90
2019-01-27T15:38:03.454Z,5.90
2019-01-27T15:40:32.109Z,5.80
2019-01-27T15:43:00.845Z,5.80
2019-01-27T15:45:30.718Z,5.80
2019-01-27T15:47:59.366Z,5.70
2019-01-27T15:50:36.374Z,5.80
2019-01-27T15:53:06.081Z,5.70
2019-01-27T15:55:36.882Z,5.70
2019-01-27T15:58:05.633Z,5.70
2019-01-27T16:00:34.302Z,5.70
2019-01-27T16:03:02.999Z,5.60
2019-01-27T16:05:31.661Z,5.70
2019-01-27T16:08:00.521Z,5.60
2019-01-27T16:10:29.169Z,5.70
2019-01-27T16:12:58.167Z,5.60
2019-01-27T16:15:32.462Z,5.70
2019-01-27T16:18:01.139Z,5.60
2019-01-27T16:20:29.798Z,5.60
2019-01-27T16:23:00.244Z,5.60
2019-01-27T16:25:28.913Z,5.60
2019-01-27T16:27:57.573Z,5.60
2019-01-27T16:30:30.428Z,5.60
2019-01-27T16:33:00.662Z,5.40
2019-01-27T16:35:29.454Z,5.50
2019-01-27T16:37:58.128Z,5.50
2019-01-27T16:40:26.804Z,5.40
2019-01-27T16:42:55.493Z,5.50
2019-01-27T16:45:24.185Z,5.40
2019-01-27T16:47:52.854Z,5.40
2019-01-27T16:50:21.709Z,5.40
2019-01-27T16:52:50.386Z,5.30
2019-01-27T16:55:20.792Z,5.30
2019-01-27T16:57:49.478Z,5.20
2019-01-27T17:00:24.173Z,5.20
2019-01-27T17:02:52.871Z,5.20
2019-01-27T17:05:21.529Z,5.20
2019-01-27T17:07:50.209Z,5.10
2019-01-27T17:10:24.017Z,5.10
2019-01-27T17:12:52.679Z,5.10
2019-01-27T17:15:21.467Z,4.90
2019-01-27T17:17:50.113Z,5.00
2019-01-27T17:20:26.390Z,4.90
2019-01-27T17:22:55.082Z,4.90
2019-01-27T17:25:23.972Z,4.80
2019-01-27T17:27:52.814Z,4.70
2019-01-27T17:30:23.088Z,4.70
2019-01-27T17:32:52.038Z,4.70
2019-01-27T17:35:21.270Z,4.60
2019-01-27T17:37:49.912Z,4.50
2019-01-27T17:40:19.695Z,4.40
2019-01-27T17:42:48.567Z,4.40
2019-01-27T17:45:18.822Z,4.30
2019-01-27T17:47:47.605Z,4.20
2019-01-27T17:50:20.935Z,4.10
2019-01-27T17:52:49.978Z,4.10
2019-01-27T17:55:28.753Z,4.00
2019-01-27T17:57:59.183Z,3.90
2019-01-27T18:00:38.410Z,4.00
2019-01-27T18:03:20.689Z,3.90
2019-01-27T18:05:55.253Z,3.90
2019-01-27T18:08:25.658Z,3.80
2019-01-27T18:10:56.173Z,3.90
2019-01-27T18:13:26.011Z,3.90
2019-01-27T18:15:54.694Z,3.80
2019-01-27T18:18:23.341Z,3.80
2019-01-27T18:20:52.016Z,3.90
2019-01-27T18:23:20.678Z,3.80
2019-01-27T18:25:49.529Z,3.80
2019-01-27T18:28:18.195Z,3.90
2019-01-27T18:30:46.889Z,3.90
2019-01-27T18:33:15.600Z,3.90
2019-01-27T18:35:44.320Z,3.80
2019-01-27T18:38:13.088Z,3.90
2019-01-27T18:40:41.923Z,3.80
2019-01-27T18:43:10.630Z,3.80
2019-01-27T18:45:39.377Z,3.90
2019-01-27T18:48:08.186Z,3.90
2019-01-27T18:50:36.902Z,3.90
2019-01-27T18:53:07.149Z,3.80
2019-01-27T18:55:40.042Z,3.80
2019-01-27T18:58:19.161Z,3.80
2019-01-27T19:00:49.406Z,3.80
2019-01-27T19:03:31.545Z,3.80
2019-01-27T19:06:19.719Z,3.80
2019-01-27T19:09:08.237Z,3.80
2019-01-27T19:11:38.473Z,3.80
2019-01-27T19:14:14.849Z,3.70
2019-01-27T19:16:56.954Z,3.80
2019-01-27T19:19:33.050Z,3.80
2019-01-27T19:22:15.254Z,3.70
2019-01-27T19:24:54.659Z,3.70
2019-01-27T19:27:31.100Z,3.70
2019-01-27T19:30:02.649Z,3.70
2019-01-27T19:32:33.025Z,3.70
2019-01-27T19:35:09.051Z,3.70
2019-01-27T19:37:42.146Z,3.70
2019-01-27T19:40:28.862Z,3.70
2019-01-27T19:42:59.075Z,3.70
2019-01-27T19:45:32.045Z,3.70
2019-01-27T19:48:02.379Z,3.70
2019-01-27T19:50:32.829Z,3.70
2019-01-27T19:53:11.965Z,3.70
2019-01-27T19:55:58.499Z,3.70
2019-01-27T19:58:40.814Z,3.70
2019-01-27T20:01:27.198Z,3.60
2019-01-27T20:04:03.246Z,3.60
2019-01-27T20:06:39.233Z,3.60
2019-01-27T20:09:26.665Z,3.50
2019-01-27T20:12:12.078Z,3.40
2019-01-27T20:14:45.386Z,3.40
2019-01-27T20:17:31.750Z,3.30
2019-01-27T20:20:17.195Z,3.30
2019-01-27T20:22:47.464Z,3.30
2019-01-27T20:25:29.952Z,3.20
2019-01-27T20:28:16.545Z,3.30
2019-01-27T20:30:46.780Z,3.30
2019-01-27T20:33:33.266Z,3.30
2019-01-27T20:36:06.429Z,3.30
2019-01-27T20:38:42.599Z,3.30
2019-01-27T20:41:15.623Z,3.40
2019-01-27T20:43:45.841Z,3.30
2019-01-27T20:46:28.047Z,3.40
2019-01-27T20:48:58.290Z,3.40
2019-01-27T20:51:31.437Z,3.30
2019-01-27T20:54:04.466Z,3.40
2019-01-27T20:56:37.146Z,3.40
2019-01-27T20:59:12.938Z,3.40
2019-01-27T21:01:45.853Z,3.40
2019-01-27T21:04:21.775Z,3.30
2019-01-27T21:06:52.202Z,3.40
2019-01-27T21:09:31.129Z,3.30
2019-01-27T21:12:06.810Z,3.30
2019-01-27T21:14:39.881Z,3.30
2019-01-27T21:17:12.596Z,3.30
2019-01-27T21:19:42.846Z,3.20
2019-01-27T21:22:11.502Z,3.30
2019-01-27T21:24:40.185Z,3.20
2019-01-27T21:27:08.889Z,3.20
2019-01-27T21:29:37.589Z,3.10
2019-01-27T21:32:06.216Z,3.10
2019-01-27T21:34:34.902Z,3.10
2019-01-27T21:37:03.594Z,3.10
2019-01-27T21:39:32.287Z,3.10
2019-01-27T21:42:00.946Z,3.20
2019-01-27T21:44:29.623Z,3.20
2019-01-27T21:46:58.294Z,3.20
2019-01-27T21:49:28.722Z,3.20
2019-01-27T21:51:57.369Z,3.20
2019-01-27T21:54:26.039Z,3.20
2019-01-27T21:56:54.729Z,3.10
2019-01-27T21:59:23.388Z,3.10
2019-01-27T22:01:52.039Z,3.00
2019-01-27T22:04:20.749Z,3.00
2019-01-27T22:06:49.434Z,3.00
2019-01-27T22:09:18.101Z,3.00
2019-01-27T22:11:46.784Z,3.00
2019-01-27T22:14:15.519Z,3.00
2019-01-27T22:16:44.372Z,2.90
2019-01-27T22:19:13.042Z,2.90
2019-01-27T22:21:41.726Z,2.90
2019-01-27T22:24:10.403Z,2.90
2019-01-27T22:26:39.036Z,2.90
2019-01-27T22:29:07.713Z,2.90
2019-01-27T22:31:36.482Z,3.00
2019-01-27T22:34:06.101Z,3.00
2019-01-27T22:36:34.965Z,3.00
2019-01-27T22:39:05.470Z,3.00
2019-01-27T22:41:34.142Z,3.10
2019-01-27T22:44:02.931Z,3.10
2019-01-27T22:46:31.638Z,3.00
2019-01-27T22:49:00.286Z,3.10
2019-01-27T22:51:29.083Z,3.10
2019-01-27T22:53:58.021Z,3.10
2019-01-27T22:56:26.782Z,3.10
2019-01-27T22:58:55.447Z,3.10
2019-01-27T23:01:24.129Z,3.10
2019-01-27T23:03:52.821Z,3.10
2019-01-27T23:06:21.538Z,3.10
2019-01-27T23:08:50.193Z,3.10
2019-01-27T23:11:20.411Z,3.00
2019-01-27T23:13:49.194Z,2.90
2019-01-27T23:16:17.942Z,3.00
2019-01-27T23:18:46.718Z,3.00
2019-01-27T23:21:15.379Z,3.10
2019-01-27T23:23:44.049Z,3.10
2019-01-27T23:26:14.168Z,3.10
2019-01-27T23:28:42.846Z,3.10
2019-01-27T23:31:11.485Z,3.10
2019-01-27T23:33:40.163Z,3.10
2019-01-27T23:36:08.955Z,3.10
2019-01-27T23:38:37.642Z,3.00
2019-01-27T23:41:06.310Z,3.10
2019-01-27T23:43:34.964Z,3.10
2019-01-27T23:46:03.830Z,3.10
2019-01-27T23:48:32.477Z,3.20
2019-01-27T23:51:01.257Z,3.10
2019-01-27T23:53:29.910Z,3.10
2019-01-27T23:55:58.723Z,3.10
2019-01-27T23:58:27.365Z,3.10
